createdAt,value
2018-12-21T07:10:22.229Z,52.43
2018-12-21T07:12:49.884Z,55.20
2018-12-21T07:15:17.711Z,61.03
2018-12-21T07:17:45.430Z,60.87
2018-12-21T07:20:13.085Z,54.00
2018-12-21T07:22:40.769Z,57.17
2018-12-21T07:25:08.702Z,66.80
2018-12-21T07:27:36.363Z,66.33
2018-12-21T07:30:06.038Z,55.43
2018-12-21T07:32:33.787Z,55.13
2018-12-21T07:35:01.457Z,53.80
2018-12-21T07:37:29.385Z,52.87
2018-12-21T07:39:57.095Z,56.37
2018-12-21T07:42:24.783Z,53.17
2018-12-21T07:44:52.493Z,54.30
2018-12-21T07:47:20.283Z,49.53
2018-12-21T07:49:47.905Z,49.27
2018-12-21T07:52:15.575Z,47.43
2018-12-21T07:54:43.615Z,47.27
2018-12-21T07:57:11.253Z,48.20
2018-12-21T07:59:38.909Z,45.37
2018-12-21T08:02:06.605Z,43.30
2018-12-21T08:04:34.325Z,46.80
2018-12-21T08:07:01.984Z,46.33
2018-12-21T08:09:29.662Z,48.23
2018-12-21T08:11:57.303Z,45.70
2018-12-21T08:14:24.957Z,47.27
2018-12-21T08:16:52.654Z,46.77
2018-12-21T08:19:20.312Z,46.73
2018-12-21T08:21:47.978Z,49.70
2018-12-21T08:24:15.662Z,45.90
2018-12-21T08:26:43.593Z,43.90
2018-12-21T08:29:11.266Z,45.37
2018-12-21T08:31:39.002Z,46.57
2018-12-21T08:34:06.672Z,46.87
2018-12-21T08:36:34.328Z,45.30
2018-12-21T08:39:02.069Z,46.47
2018-12-21T08:41:29.758Z,46.60
2018-12-21T08:43:57.440Z,44.93
2018-12-21T08:46:25.150Z,48.73
2018-12-21T08:48:52.947Z,48.93
2018-12-21T08:51:20.860Z,47.23
2018-12-21T08:53:52.555Z,49.13
2018-12-21T08:56:18.304Z,49.83
2018-12-21T08:58:46.061Z,46.13
2018-12-21T09:01:13.889Z,50.57
2018-12-21T09:03:41.590Z,47.83
2018-12-21T09:06:09.327Z,49.70
2018-12-21T09:08:37.067Z,46.67
2018-12-21T09:11:04.812Z,44.20
2018-12-21T09:13:32.541Z,41.37
2018-12-21T09:16:00.254Z,41.37
2018-12-21T09:18:27.951Z,42.57
2018-12-21T09:20:55.648Z,41.73
2018-12-21T09:23:23.823Z,42.73
2018-12-21T09:25:51.736Z,41.33
2018-12-21T09:28:19.466Z,42.67
2018-12-21T09:30:47.199Z,43.13
2018-12-21T09:33:14.912Z,40.97
2018-12-21T09:35:42.676Z,39.03
2018-12-21T09:38:10.464Z,40.03
2018-12-21T09:40:38.181Z,39.53
2018-12-21T09:43:06.032Z,39.00
2018-12-21T09:45:33.762Z,39.03
2018-12-21T09:48:01.523Z,42.33
2018-12-21T09:50:29.294Z,39.23
2018-12-21T09:52:57.528Z,45.23
2018-12-21T09:55:25.283Z,42.33
2018-12-21T09:57:52.983Z,40.00
2018-12-21T10:00:20.719Z,40.50
2018-12-21T10:02:48.431Z,38.23
2018-12-21T10:05:16.702Z,38.20
2018-12-21T10:07:48.368Z,38.30
2018-12-21T10:10:16.161Z,39.60
2018-12-21T10:12:44.020Z,42.20
2018-12-21T10:15:12.950Z,40.23
2018-12-21T10:17:40.661Z,39.67
2018-12-21T10:20:19.952Z,40.57
2018-12-21T10:22:46.817Z,39.37
2018-12-21T10:25:14.527Z,37.57
2018-12-21T10:27:42.271Z,37.83
2018-12-21T10:30:10.429Z,36.53
2018-12-21T10:32:46.594Z,36.73
2018-12-21T10:35:14.483Z,36.20
2018-12-21T10:37:42.229Z,32.83
2018-12-21T10:40:09.961Z,33.33
2018-12-21T10:42:41.621Z,33.47
2018-12-21T10:45:09.345Z,35.20
2018-12-21T10:47:37.132Z,34.90
2018-12-21T10:50:07.513Z,34.00
2018-12-21T10:52:35.192Z,32.77
2018-12-21T10:55:03.183Z,35.47
2018-12-21T10:57:30.890Z,31.83
2018-12-21T10:59:58.671Z,32.80
2018-12-21T11:02:26.495Z,32.77
2018-12-21T11:04:54.181Z,31.97
2018-12-21T11:07:21.958Z,31.90
2018-12-21T11:09:49.805Z,33.73
2018-12-21T11:12:17.465Z,34.50
2018-12-21T11:14:45.241Z,37.50
2018-12-21T11:17:12.955Z,36.37
2018-12-21T11:19:40.690Z,35.77
2018-12-21T11:25:39.541Z,37.97
2018-12-21T11:28:07.232Z,35.70
2018-12-21T11:30:34.904Z,35.93
2018-12-21T11:33:02.809Z,35.70
2018-12-21T11:35:30.497Z,33.87
2018-12-21T11:37:58.155Z,33.30
2018-12-21T11:40:25.858Z,34.60
2018-12-21T11:42:53.552Z,35.33
2018-12-21T11:45:21.237Z,35.93
2018-12-21T11:47:48.919Z,35.97
2018-12-21T11:50:16.622Z,33.83
2018-12-21T11:52:44.315Z,31.90
2018-12-21T11:55:12.013Z,32.60
2018-12-21T11:57:39.714Z,32.77
2018-12-21T12:00:08.737Z,30.87
2018-12-21T12:02:36.441Z,32.57
2018-12-21T12:05:04.415Z,32.60
2018-12-21T12:07:32.077Z,32.63
2018-12-21T12:09:59.745Z,30.90
2018-12-21T12:12:27.449Z,30.93
2018-12-21T12:14:55.195Z,30.10
2018-12-21T12:17:22.882Z,29.70
2018-12-21T12:19:50.657Z,29.37
2018-12-21T12:22:21.688Z,35.77
2018-12-21T12:24:55.366Z,35.63
2018-12-21T12:27:27.190Z,32.67
2018-12-21T12:29:58.905Z,34.63
2018-12-21T12:32:27.333Z,33.07
2018-12-21T12:35:02.482Z,30.90
2018-12-21T12:37:45.300Z,32.90
2018-12-21T12:40:16.618Z,32.73
2018-12-21T12:42:53.776Z,33.57
2018-12-21T12:45:21.795Z,35.67
2018-12-21T12:47:49.628Z,34.87
2018-12-21T12:50:19.321Z,32.57
2018-12-21T12:52:48.161Z,33.93
2018-12-21T12:55:15.977Z,32.43
2018-12-21T12:57:43.694Z,33.97
2018-12-21T13:00:12.275Z,34.50
2018-12-21T13:02:40.033Z,35.13
2018-12-21T13:05:08.040Z,35.73
2018-12-21T13:07:35.773Z,34.23
2018-12-21T13:10:04.645Z,36.13
2018-12-21T13:12:32.347Z,37.17
2018-12-21T13:15:00.086Z,38.30
2018-12-21T13:17:27.890Z,38.63
2018-12-21T13:19:55.642Z,38.80
2018-12-21T13:22:23.411Z,39.90
2018-12-21T13:24:51.152Z,40.57
2018-12-21T13:27:20.181Z,38.07
2018-12-21T13:29:48.076Z,41.03
2018-12-21T13:32:15.759Z,38.77
2018-12-21T13:34:43.477Z,39.43
2018-12-21T13:37:11.294Z,37.30
2018-12-21T13:39:39.023Z,39.00
2018-12-21T13:42:09.818Z,40.83
2018-12-21T13:44:37.765Z,41.90
2018-12-21T13:47:05.508Z,45.07
2018-12-21T13:49:33.933Z,49.83
2018-12-21T13:52:02.429Z,50.70
2018-12-21T13:54:30.326Z,53.83
2018-12-21T13:56:58.057Z,49.13
2018-12-21T13:59:25.793Z,49.10
2018-12-21T14:01:53.823Z,51.50
2018-12-21T14:04:21.655Z,50.90
2018-12-21T14:06:49.641Z,52.43
2018-12-21T14:09:17.393Z,46.13
2018-12-21T14:11:45.241Z,50.13
2018-12-21T14:14:13.107Z,46.90
2018-12-21T14:16:41.011Z,49.53
2018-12-21T14:19:09.733Z,49.80
2018-12-21T14:21:38.921Z,50.03
2018-12-21T14:24:06.937Z,49.60
2018-12-21T14:26:34.689Z,49.57
2018-12-21T14:29:03.643Z,49.60
2018-12-21T14:31:32.182Z,54.80
2018-12-21T14:34:00.139Z,58.20
2018-12-21T14:36:28.947Z,58.97
2018-12-21T14:38:58.806Z,53.27
2018-12-21T14:41:30.170Z,53.27
2018-12-21T14:43:57.946Z,55.70
2018-12-21T14:46:25.702Z,57.20
2018-12-21T14:48:53.568Z,56.33
2018-12-21T14:51:21.349Z,55.70
2018-12-21T14:53:49.279Z,56.03
2018-12-21T14:56:17.062Z,58.83
2018-12-21T14:58:44.841Z,58.80
2018-12-21T15:01:12.609Z,58.70
2018-12-21T15:03:40.422Z,61.97
2018-12-21T15:06:08.495Z,63.03
2018-12-21T15:08:36.435Z,57.40
2018-12-21T15:11:04.403Z,60.00
2018-12-21T15:13:33.201Z,62.10
2018-12-21T15:16:01.047Z,61.37
2018-12-21T15:18:28.834Z,62.83
2018-12-21T15:20:56.627Z,64.50
2018-12-21T15:23:24.373Z,60.17
2018-12-21T15:25:52.233Z,57.47
2018-12-21T15:28:20.659Z,54.50
2018-12-21T15:30:48.639Z,54.93
2018-12-21T15:33:16.418Z,56.53
2018-12-21T15:35:44.275Z,52.80
2018-12-21T15:38:12.132Z,57.73
2018-12-21T15:40:39.923Z,56.23
2018-12-21T15:43:07.737Z,63.33
2018-12-21T15:45:35.461Z,70.63
2018-12-21T15:48:03.365Z,67.30
2018-12-21T15:50:31.139Z,69.10
2018-12-21T15:52:58.883Z,61.00
2018-12-21T15:55:26.737Z,59.73
2018-12-21T15:57:54.563Z,58.73
2018-12-21T16:00:22.493Z,57.90
2018-12-21T16:02:52.835Z,60.83
2018-12-21T16:05:20.581Z,58.50
2018-12-21T16:07:48.363Z,60.50
2018-12-21T16:10:16.076Z,60.53
2018-12-21T16:12:43.815Z,58.13
2018-12-21T16:15:11.607Z,61.50
2018-12-21T16:17:39.465Z,59.20
2018-12-21T16:20:10.603Z,62.60
2018-12-21T16:22:42.462Z,59.30
2018-12-21T16:25:10.394Z,61.30
2018-12-21T16:27:38.163Z,57.60
2018-12-21T16:30:09.368Z,58.90
2018-12-21T16:32:37.127Z,54.50
2018-12-21T16:35:05.385Z,57.50
2018-12-21T16:37:33.133Z,54.57
2018-12-21T16:40:00.951Z,53.07
2018-12-21T16:42:28.752Z,58.10
2018-12-21T16:44:56.487Z,56.53
2018-12-21T16:47:24.963Z,56.53
2018-12-21T16:49:52.697Z,54.00
2018-12-21T16:52:20.407Z,51.23
2018-12-21T16:54:48.189Z,52.53
2018-12-21T16:57:15.943Z,53.23
2018-12-21T16:59:43.677Z,53.57
2018-12-21T17:02:11.429Z,60.50
2018-12-21T17:04:39.176Z,63.07
2018-12-21T17:07:06.946Z,60.40
2018-12-21T17:09:34.763Z,61.50
2018-12-21T17:12:02.442Z,58.33
2018-12-21T17:14:30.169Z,66.30
2018-12-21T17:16:57.925Z,56.77
2018-12-21T17:19:26.259Z,58.40
2018-12-21T17:21:54.034Z,56.83
2018-12-21T17:24:21.897Z,74.00
2018-12-21T17:26:50.505Z,78.83
2018-12-21T17:29:23.139Z,58.37
2018-12-21T17:31:51.015Z,55.17
2018-12-21T17:34:18.919Z,52.10
2018-12-21T17:36:46.715Z,53.17
2018-12-21T17:39:14.583Z,54.70
2018-12-21T17:41:42.381Z,51.97
2018-12-21T17:44:13.218Z,52.30
2018-12-21T17:46:41.144Z,52.73
2018-12-21T17:49:09.005Z,50.50
2018-12-21T17:51:38.503Z,52.80
2018-12-21T17:54:06.447Z,52.93
2018-12-21T17:56:34.812Z,47.60
2018-12-21T17:59:02.909Z,46.73
2018-12-21T18:01:31.981Z,52.90
2018-12-21T18:04:07.259Z,48.50
2018-12-21T18:06:35.067Z,46.20
2018-12-21T18:09:04.807Z,53.47
2018-12-21T18:11:32.584Z,51.43
2018-12-21T18:14:01.479Z,43.33
2018-12-21T18:16:29.239Z,45.20
2018-12-21T18:18:57.329Z,44.47
2018-12-21T18:21:40.019Z,47.67
2018-12-21T18:24:07.895Z,42.17
2018-12-21T18:26:38.625Z,44.60
2018-12-21T18:29:05.546Z,43.50
2018-12-21T18:31:45.911Z,43.60
2018-12-21T18:34:17.863Z,43.30
2018-12-21T18:36:45.788Z,44.93
2018-12-21T18:39:13.597Z,43.87
2018-12-21T18:41:41.358Z,43.03
2018-12-21T18:44:09.192Z,43.33
2018-12-21T18:46:38.106Z,42.37
2018-12-21T18:49:05.863Z,43.90
2018-12-21T18:51:33.682Z,45.20
2018-12-21T18:54:01.424Z,43.40
2018-12-21T18:56:30.967Z,41.77
2018-12-21T18:58:58.767Z,43.23
2018-12-21T19:01:26.537Z,43.03
2018-12-21T19:03:54.359Z,41.43
2018-12-21T19:06:22.181Z,43.03
2018-12-21T19:08:49.949Z,41.30
2018-12-21T19:11:17.715Z,42.63
2018-12-21T19:13:45.465Z,43.13
2018-12-21T19:16:13.261Z,41.93
2018-12-21T19:18:40.941Z,41.50
2018-12-21T19:21:08.711Z,39.53
2018-12-21T19:23:36.513Z,42.83
2018-12-21T19:26:04.280Z,43.90
2018-12-21T19:28:32.075Z,43.43
2018-12-21T19:30:59.767Z,40.10
2018-12-21T19:33:27.485Z,41.77
2018-12-21T19:35:55.247Z,41.47
2018-12-21T19:38:23.012Z,42.23
2018-12-21T19:40:50.796Z,47.17
2018-12-21T19:43:18.633Z,40.00
2018-12-21T19:45:46.381Z,43.83
2018-12-21T19:48:14.135Z,43.80
2018-12-21T19:50:41.852Z,45.20
2018-12-21T19:53:09.656Z,47.53
2018-12-21T19:55:51.313Z,46.47
2018-12-21T19:58:19.096Z,45.80
2018-12-21T20:00:46.865Z,46.50
2018-12-21T20:03:14.635Z,42.70
2018-12-21T20:05:42.507Z,47.80
2018-12-21T20:08:10.303Z,45.57
2018-12-21T20:10:38.103Z,47.00
2018-12-21T20:13:05.832Z,47.73
2018-12-21T20:15:33.539Z,47.77
2018-12-21T20:18:01.327Z,49.83
2018-12-21T20:20:29.040Z,50.23
2018-12-21T20:22:56.766Z,50.60
2018-12-21T20:25:25.020Z,49.03
2018-12-21T20:27:52.694Z,46.07
2018-12-21T20:30:20.515Z,48.20
2018-12-21T20:32:48.220Z,46.07
2018-12-21T20:35:15.948Z,46.37
2018-12-21T20:37:43.660Z,45.27
2018-12-21T20:40:12.189Z,48.53
2018-12-21T20:42:39.926Z,43.33
2018-12-21T20:45:09.105Z,43.33
2018-12-21T20:47:36.826Z,41.27
2018-12-21T20:50:06.545Z,41.47
2018-12-21T20:52:34.325Z,39.83
2018-12-21T20:55:04.449Z,41.10
2018-12-21T20:57:32.246Z,37.87
2018-12-21T20:59:59.982Z,39.27
2018-12-21T21:02:27.702Z,36.67
2018-12-21T21:04:55.522Z,37.37
2018-12-21T21:07:23.264Z,37.77
2018-12-21T21:09:51.048Z,41.37
2018-12-21T21:12:18.805Z,42.70
2018-12-21T21:14:46.511Z,42.47
2018-12-21T21:17:14.301Z,38.53
2018-12-21T21:19:42.197Z,35.27
2018-12-21T21:22:09.891Z,35.77
2018-12-21T21:24:37.658Z,36.00
2018-12-21T21:27:05.369Z,35.77
2018-12-21T21:29:33.094Z,37.43
2018-12-21T21:32:00.869Z,38.27
2018-12-21T21:34:28.575Z,36.33
2018-12-21T21:36:56.368Z,35.23
2018-12-21T21:39:24.102Z,37.00
2018-12-21T21:41:52.118Z,35.53
2018-12-21T21:44:19.808Z,33.43
2018-12-21T21:46:47.629Z,32.97
2018-12-21T21:49:15.333Z,35.57
2018-12-21T21:51:43.099Z,38.07
2018-12-21T21:54:10.832Z,36.97
2018-12-21T21:56:38.586Z,35.23
2018-12-21T21:59:06.358Z,38.10
2018-12-21T22:01:34.157Z,33.97
2018-12-21T22:04:01.858Z,37.50
2018-12-21T22:06:29.573Z,34.03
2018-12-21T22:08:57.301Z,34.60
2018-12-21T22:11:25.783Z,35.20
2018-12-21T22:13:54.872Z,34.77
2018-12-21T22:16:22.932Z,34.87
2018-12-21T22:18:50.740Z,35.37
2018-12-21T22:21:18.624Z,35.80
2018-12-21T22:23:46.340Z,35.00
2018-12-21T22:26:14.193Z,36.43
2018-12-21T22:28:41.972Z,35.27
2018-12-21T22:31:09.711Z,35.37
2018-12-21T22:33:37.406Z,35.73
2018-12-21T22:36:05.117Z,35.63
2018-12-21T22:38:32.831Z,36.17
2018-12-21T22:41:00.618Z,34.80
2018-12-21T22:43:28.351Z,36.13
2018-12-21T22:45:56.103Z,31.80
2018-12-21T22:48:23.827Z,33.17
2018-12-21T22:50:51.603Z,35.00
2018-12-21T22:53:19.333Z,33.50
2018-12-21T22:55:47.038Z,32.90
2018-12-21T22:58:14.755Z,33.87
2018-12-21T23:00:43.263Z,35.27
2018-12-21T23:03:10.980Z,37.67
2018-12-21T23:05:38.698Z,36.27
2018-12-21T23:08:07.374Z,37.60
2018-12-21T23:10:35.066Z,36.87
2018-12-21T23:13:02.750Z,36.20
2018-12-21T23:15:30.480Z,35.97
2018-12-21T23:17:58.188Z,34.30
2018-12-21T23:20:25.916Z,31.90
2018-12-21T23:22:53.687Z,36.07
2018-12-21T23:25:21.368Z,34.90
2018-12-21T23:27:49.021Z,34.43
2018-12-21T23:30:16.738Z,35.30
2018-12-21T23:32:44.521Z,32.37
2018-12-21T23:35:12.251Z,35.10
2018-12-21T23:37:39.965Z,36.57
2018-12-21T23:40:08.341Z,30.67
2018-12-21T23:42:36.012Z,33.17
2018-12-21T23:45:04.002Z,34.30
2018-12-21T23:47:31.720Z,35.57
2018-12-21T23:49:59.396Z,33.37
2018-12-21T23:52:27.133Z,33.07
2018-12-21T23:54:54.885Z,33.37
2018-12-21T23:57:22.611Z,34.07
2018-12-21T23:59:50.381Z,31.50
